• Join FlightAware (Why Join?)
  • Login
  • US Flag 
09:25PM EDT


 

Airport Tracker/Info


-or-


 

Live Flight TrackerFlight Track Log ✈ EIN348 ✈ 18-Jul-2013 ✈ EIDW / DUB - LSZH / ZRH

Flight Track Log - Related Links

Times and Time Zones

All times are in EDT time to prevent confusion due to time zone crossing. See the EIN348 flight status page for this flight to view local times or setup timezone preferences in your user account.

Time Position Orientation Groundspeed Altitude Reporting Facility
EDT Latitude Longitude Course Direction KTS MPH feet Rate Location/Type
12:08PM 53.4230 -6.2470 53° Northeast  Level FlightAware
12:09PM 53.4240 -6.2470 360° North 60 Level FlightAware
12:12PM 53.3267 -5.9208 116° Southeast  Level Estimated
12:13PM 53.2811 -5.7695 117° Southeast  Level Estimated
12:13PM 53.4240 -6.2490 117° Southeast 14 16  Level FlightAware
12:13PM 53.4250 -6.2500 329° Northwest 15 17 60 Level FlightAware
12:14PM 53.4270 -6.2540 310° West 19 22 120 Level FlightAware
12:15PM 53.4230 -6.2600 222° Southwest 120 Level FlightAware
12:16PM 53.4230 -6.2640 270° West 120 Level FlightAware
12:17PM 53.4230 -6.2740 270° West 180 Level FlightAware
12:17PM 53.4240 -6.2830 281° West 240 Level FlightAware
12:18PM 53.4240 -6.2900 270° West 360 Level FlightAware
12:19PM 53.4200 -6.2450 98° East 139 160 700 900 Climbing FlightAware
12:20PM 53.4191 -6.1940 98° East 172 198 1,800 1,260 Climbing FlightAware UK
12:20PM 53.4168 -6.1424 94° East 226 260 2,400 1,560 Climbing FlightAware UK
12:21PM 53.4100 -6.0693 99° East 268 308 3,700 2,400 Climbing FlightAware UK
12:22PM 53.3914 -6.0166 121° Southeast 274 315 5,100 2,280 Climbing FlightAware UK
12:22PM 53.3720 -6.0060 121° Southeast 277 319 6,100 2,880 Climbing FlightAware
12:23PM 53.2901 -5.9972 121° Southeast 288 331 8,900 2,880 Climbing FlightAware UK
12:23PM 53.3000 -5.9980 121° Southeast 289 333 8,700 2,100 Descending FlightAware
12:24PM 53.2161 -5.9817 121° Southeast 316 364 10,800 2,700 Climbing FlightAware UK
12:24PM 53.2180 -5.9810 121° Southeast 322 371 10,800 1,560 Level FlightAware
12:24PM 53.1694 -5.9690 121° Southeast 340 391 11,600 1,980 Climbing FlightAware UK
12:25PM 53.1460 -5.9610 121° Southeast 350 403 12,300 2,580 Climbing FlightAware
12:25PM 53.1330 -5.9580 171° South 353 406 12,600 2,160 Climbing FlightAware
12:25PM 53.0918 -5.9470 121° Southeast 350 403 13,500 2,460 Climbing FlightAware UK
12:26PM 53.0423 -5.9332 170° South 356 410 14,900 2,520 Climbing FlightAware UK
12:26PM 52.9825 -5.9167 171° South 364 419 16,300 1,980 Climbing FlightAware UK
12:27PM 52.9317 -5.9023 171° South 372 428 17,100 1,980 Climbing FlightAware UK
12:27PM 52.8794 -5.8878 171° South 376 433 18,300 2,160 Climbing FlightAware UK
12:28PM 52.8162 -5.8703 170° South 382 440 19,500 1,200 Climbing FlightAware UK
12:28PM 52.8380 -5.8760 170° South 387 445 19,100 1,320 Descending FlightAware
12:29PM 52.7520 -5.8520 170° South 395 455 20,600 1,920 Climbing FlightAware
12:29PM 52.6660 -5.8290 171° South 407 468 21,900 1,860 Climbing FlightAware
12:30PM 52.5744 -5.8045 171° South 404 465 23,200 1,740 Climbing FlightAware UK
12:30PM 52.5760 -5.8050 171° South 414 476 23,200 1,500 Level FlightAware
12:31PM 52.5060 -5.7867 171° South 408 470 24,100 1,560 Climbing FlightAware UK
12:31PM 52.4910 -5.7820 171° South 423 487 24,400 1,560 Climbing FlightAware
12:31PM 52.4110 -5.7610 171° South 428 493 25,400 1,320 Climbing FlightAware
12:32PM 52.3260 -5.7390 171° South 436 502 26,300 1,140 Climbing FlightAware
12:32PM 52.3180 -5.7376 171° South 426 490 26,300 1,440 Level FlightAware UK
12:33PM 52.2579 -5.7229 171° South 428 493 27,100 1,560 Climbing FlightAware UK
12:33PM 52.2550 -5.7210 171° South 438 504 27,200 1,260 Climbing FlightAware
12:34PM 52.1580 -5.6980 172° South 446 513 28,200 1,140 Climbing FlightAware
12:34PM 52.0756 -5.6806 172° South 440 506 28,900 1,020 Climbing FlightAware UK
12:34PM 52.0740 -5.6790 172° South 450 518 28,900 960 Level FlightAware
12:35PM 51.9878 -5.6606 172° South 444 511 29,600 1,200 Climbing FlightAware UK
12:35PM 51.9930 -5.6610 172° South 455 524 29,700 1,200 Climbing FlightAware
12:35PM 51.9271 -5.6353 172° South 448 516 30,200 1,140 Climbing FlightAware UK
12:36PM 51.9130 -5.6230 172° South 447 514 30,500 1,140 Climbing FlightAware
12:36PM 51.8500 -5.5340 139° Southeast 438 504 31,200 1,320 Climbing FlightAware
12:37PM 51.7904 -5.4167 139° Southeast 450 518 32,400 1,680 Climbing FlightAware UK
12:37PM 51.7850 -5.4040 139° Southeast 428 493 32,600 1,140 Climbing FlightAware
12:38PM 51.7410 -5.3010 125° Southeast 423 487 33,300 1,080 Climbing FlightAware
12:38PM 51.7280 -5.1820 100° East 413 475 34,100 1,080 Climbing FlightAware
12:39PM 51.7178 -5.0540 100° East 442 509 34,800 1,020 Climbing FlightAware UK
12:39PM 51.7170 -5.0420 100° East 410 472 34,900 960 Climbing FlightAware
12:40PM 51.7070 -4.9340 98° East 408 470 35,500 1,020 Climbing FlightAware
12:40PM 51.6970 -4.8180 98° East 405 466 36,200 840 Climbing FlightAware
12:41PM 51.6850 -4.6940 98° East 438 504 36,600 660 Climbing FlightAware UK
12:41PM 51.6850 -4.6920 98° East 404 465 36,700 540 Climbing FlightAware
12:42PM 51.6750 -4.5740 98° East 405 466 37,000 180 Climbing FlightAware
12:43PM 51.6620 -4.4390 99° East 402 463 37,000  Level FlightAware
12:43PM 51.6510 -4.3150 98° East 405 466 37,000  Level FlightAware
12:44PM 51.6396 -4.1953 98° East 440 506 37,000  Level FlightAware UK
12:44PM 51.6400 -4.1990 98° East 405 466 37,000  Level FlightAware
12:45PM 51.6280 -4.0710 99° East 405 466 37,000  Level FlightAware
12:45PM 51.6180 -3.9720 99° East 405 466 37,000  Level FlightAware
12:46PM 51.6070 -3.8560 99° East 405 466 37,000  Level FlightAware
12:46PM 51.6053 -3.8376 99° East 440 506 37,000  Level FlightAware UK
12:46PM 51.5948 -3.7306 99° East 440 506 37,000  Level FlightAware UK
12:47PM 51.5940 -3.7260 99° East 404 465 37,000  Level FlightAware
12:47PM 51.5825 -3.6060 99° East 440 506 37,000  Level FlightAware UK
12:47PM 51.5810 -3.5950 99° East 404 465 37,000  Level FlightAware
12:48PM 51.5700 -3.4812 99° East 440 506 37,000  Level FlightAware UK
12:48PM 51.5680 -3.4620 99° East 403 464 37,000  Level FlightAware
12:49PM 51.5550 -3.3400 100° East 402 463 37,000  Level FlightAware
12:49PM 51.5521 -3.3067 98° East 402 463 37,000  Level FlightAware ADS-B
12:49PM 51.5423 -3.2106 99° East 401 461 37,000  Level FlightAware ADS-B
12:50PM 51.5322 -3.1123 99° East 401 461 37,000  Level FlightAware ADS-B
12:51PM 51.5220 -3.0148 100° East 403 464 37,000  Level FlightAware ADS-B
12:51PM 51.5124 -2.9233 100° East 404 465 37,000  Level FlightAware ADS-B
12:52PM 51.5030 -2.8346 100° East 405 466 37,000  Level FlightAware ADS-B
12:52PM 51.4926 -2.7388 100° East 405 466 37,000  Level FlightAware ADS-B
12:53PM 51.4827 -2.6467 100° East 405 466 37,000  Level FlightAware ADS-B
12:53PM 51.4723 -2.5519 100° East 404 465 37,000  Level FlightAware ADS-B
12:54PM 51.4610 -2.4485 100° East 403 464 37,000  Level FlightAware ADS-B
12:54PM 51.4506 -2.3540 100° East 403 464 37,000  Level FlightAware ADS-B
12:55PM 51.4403 -2.2613 100° East 403 464 37,000  Level FlightAware ADS-B
12:55PM 51.4304 -2.1723 100° East 403 464 37,000  Level FlightAware ADS-B
12:56PM 51.4196 -2.0775 100° East 403 464 37,000  Level FlightAware ADS-B
12:56PM 51.4065 -1.9623 100° East 403 464 37,000  Level FlightAware ADS-B
12:57PM 51.3960 -1.8701 100° East 405 466 37,000  Level FlightAware ADS-B
12:58PM 51.3859 -1.7835 101° East 405 466 37,000  Level FlightAware ADS-B
12:58PM 51.3794 -1.7309 101° East 405 466 37,000  Level FlightAware ADS-B
12:58PM 51.3772 -1.7179 105° East 407 468 37,000  Level FlightAware ADS-B
12:58PM 51.3667 -1.6762 112° Southeast 411 473 37,000  Level FlightAware ADS-B
12:59PM 51.3410 -1.5911 116° Southeast 411 473 37,000  Level FlightAware ADS-B
12:59PM 51.3173 -1.5106 115° Southeast 410 472 37,000  Level FlightAware ADS-B
12:59PM 51.3063 -1.4741 116° Southeast 411 473 37,000  Level FlightAware ADS-B
01:00PM 51.2929 -1.4418 124° Southeast 417 480 37,000  Level FlightAware ADS-B
01:00PM 51.2842 -1.4262 132° Southeast 419 482 37,000  Level FlightAware ADS-B
01:00PM 51.2749 -1.4123 137° Southeast 423 487 37,000  Level FlightAware ADS-B
01:00PM 51.2303 -1.3510 139° Southeast 423 487 37,000  Level FlightAware ADS-B
01:01PM 51.1849 -1.2876 139° Southeast 422 486 37,000  Level FlightAware ADS-B
01:01PM 51.1413 -1.2247 138° Southeast 420 483 37,000  Level FlightAware ADS-B
01:02PM 51.1214 -1.1922 134° Southeast 416 479 37,000  Level FlightAware ADS-B
01:02PM 51.1105 -1.1709 129° Southeast 415 478 37,000  Level FlightAware ADS-B
01:02PM 51.0752 -1.0976 127° Southeast 414 476 37,000  Level FlightAware ADS-B
01:03PM 51.0415 -1.0275 127° Southeast 414 476 37,000  Level FlightAware ADS-B
01:03PM 51.0052 -0.9520 127° Southeast 414 476 37,000  Level FlightAware ADS-B
01:04PM 50.9699 -0.8793 128° Southeast 414 476 37,000  Level FlightAware ADS-B
01:04PM 50.9328 -0.8026 127° Southeast 414 476 37,000  Level FlightAware ADS-B
01:05PM 50.8979 -0.7310 128° Southeast 415 478 37,000  Level FlightAware ADS-B
01:05PM 50.8613 -0.6554 127° Southeast 415 478 37,000  Level FlightAware ADS-B
01:06PM 50.8235 -0.5778 128° Southeast 417 480 37,000  Level FlightAware ADS-B
01:06PM 50.7841 -0.4962 127° Southeast 418 481 37,000  Level FlightAware ADS-B
01:07PM 50.7449 -0.4157 128° Southeast 419 482 37,000  Level FlightAware ADS-B
01:07PM 50.7080 -0.3393 127° Southeast 422 486 37,000  Level FlightAware ADS-B
01:08PM 50.6922 -0.3082 129° Southeast 423 487 37,000  Level FlightAware ADS-B
01:08PM 50.6689 -0.2734 137° Southeast 431 496 37,000  Level FlightAware ADS-B
01:08PM 50.6420 -0.2387 141° Southeast 430 495 37,000  Level FlightAware ADS-B
01:09PM 50.6000 -0.1737 136° Southeast 429 494 37,000  Level FlightAware ADS-B
01:09PM 50.5575 -0.1073 135° Southeast 429 494 37,000  Level FlightAware ADS-B
01:10PM 50.5146 -0.0413 136° Southeast 431 496 37,000  Level FlightAware ADS-B
01:10PM 50.4682 0.0301 136° Southeast 431 496 37,000  Level FlightAware ADS-B
01:11PM 50.4225 0.0994 136° Southeast 431 496 37,000  Level FlightAware ADS-B
01:11PM 50.3781 0.1649 137° Southeast 432 497 37,000  Level FlightAware ADS-B
01:12PM 50.3343 0.2301 136° Southeast 431 496 37,000  Level FlightAware ADS-B
01:12PM 50.2918 0.2936 136° Southeast 431 496 37,000  Level FlightAware ADS-B
01:13PM 50.2477 0.3590 137° Southeast 432 497 37,000  Level FlightAware ADS-B
01:13PM 50.2023 0.4259 137° Southeast 432 497 37,000  Level FlightAware ADS-B
01:14PM 50.1584 0.4905 137° Southeast 432 497 37,000  Level FlightAware ADS-B
01:14PM 50.1153 0.5533 137° Southeast 433 498 37,000 -120 Level FlightAware ADS-B
01:15PM 50.0673 0.6236 137° Southeast 440 506 36,900  Descending FlightAware UK
01:15PM 50.0617 0.6322 137° Southeast 433 498 37,000 120 Climbing FlightAware ADS-B
01:15PM 50.0175 0.6980 136° Southeast 434 499 37,000  Level FlightAware ADS-B
01:16PM 49.9714 0.7665 136° Southeast 434 499 37,000  Level FlightAware ADS-B
01:17PM 49.9271 0.8323 136° Southeast 432 497 37,000  Level FlightAware ADS-B
01:17PM 49.8796 0.9038 136° Southeast 433 498 37,000  Level FlightAware ADS-B
01:18PM 49.8050 1.0120 137° Southeast 432 497 37,000  Level FlightAware
01:19PM 49.7390 1.1070 137° Southeast 432 497 37,000  Level FlightAware
01:19PM 49.6870 1.1800 138° Southeast 431 496 37,000  Level FlightAware
01:20PM 49.6320 1.2590 138° Southeast 430 495 37,000  Level FlightAware
01:20PM 49.6134 1.2856 138° Southeast 440 506 37,000  Level FlightAware UK
01:21PM 49.5612 1.3600 138° Southeast 440 506 37,000  Level FlightAware UK
01:21PM 49.5590 1.3620 138° Southeast 430 495 37,000  Level FlightAware
01:21PM 49.5070 1.4360 138° Southeast 431 496 37,000 -180 Level FlightAware
01:21PM 49.4994 1.4473 138° Southeast 442 509 36,900 -180 Descending FlightAware UK
01:22PM 49.4377 1.5341 138° Southeast 440 506 36,900 120 Level FlightAware UK
01:22PM 49.4400 1.5310 138° Southeast 431 496 37,000  Climbing FlightAware
01:23PM 49.3936 1.5960 138° Southeast 440 506 36,900  Descending FlightAware UK
01:23PM 49.3860 1.6060 138° Southeast 432 497 37,000 120 Climbing FlightAware
01:23PM 49.3310 1.6830 138° Southeast 431 496 37,000  Level FlightAware
01:24PM 49.2620 1.7800 137° Southeast 431 496 37,000  Level FlightAware
01:25PM 49.2080 1.8550 137° Southeast 431 496 37,000  Level FlightAware
01:25PM 49.1991 1.8673 137° Southeast 440 506 37,000  Level FlightAware UK
01:25PM 49.1551 1.9286 137° Southeast 442 509 37,000  Level FlightAware UK
01:25PM 49.1520 1.9330 137° Southeast 429 494 37,000  Level FlightAware
01:26PM 49.0840 2.0270 138° Southeast 429 494 37,000  Level FlightAware
01:27PM 49.0200 2.1150 138° Southeast 432 497 37,000  Level FlightAware
01:27PM 49.0138 2.1243 138° Southeast 438 504 37,000 -240 Level FlightAware UK
01:27PM 48.9694 2.1854 138° Southeast 440 506 36,900  Descending FlightAware UK
01:28PM 48.9620 2.1950 138° Southeast 434 499 37,000 120 Climbing FlightAware
01:28PM 48.9070 2.2700 138° Southeast 434 499 37,000  Level FlightAware
01:29PM 48.8510 2.3460 138° Southeast 435 501 37,000  Level FlightAware
01:30PM 48.7770 2.4460 138° Southeast 434 499 37,000  Level FlightAware
01:30PM 48.7260 2.5160 138° Southeast 434 499 37,000  Level FlightAware
01:31PM 48.6690 2.6020 135° Southeast 432 497 37,000  Level FlightAware
01:32PM 48.6250 2.7120 121° Southeast 432 497 37,000  Level FlightAware
01:32PM 48.6040 2.8240 106° East 430 495 37,000  Level FlightAware
01:33PM 48.5790 2.9480 107° East 429 494 37,000  Level FlightAware
01:34PM 48.5540 3.0730 107° East 427 491 37,000  Level FlightAware
01:34PM 48.5290 3.1990 107° East 427 491 37,000  Level FlightAware
01:35PM 48.5120 3.2880 106° East 428 493 37,000  Level FlightAware
01:36PM 48.4900 3.3960 107° East 429 494 37,000  Level FlightAware
01:36PM 48.4630 3.5310 107° East 429 494 37,000  Level FlightAware
01:37PM 48.4440 3.6270 107° East 430 495 37,000  Level FlightAware
01:38PM 48.4220 3.7560 104° East 435 501 37,000  Level FlightAware
01:38PM 48.4230 3.8780 89° East 438 504 37,000  Level FlightAware
01:39PM 48.4260 3.9870 88° East 437 503 37,000  Level FlightAware
01:40PM 48.4320 4.1220 86° East 437 503 37,000  Level FlightAware
01:40PM 48.4360 4.2290 87° East 438 504 37,000  Level FlightAware
01:41PM 48.4410 4.3720 87° East 438 504 37,000  Level FlightAware
01:42PM 48.4450 4.4860 87° East 439 505 37,000  Level FlightAware
01:42PM 48.4490 4.6190 87° East 439 505 37,000  Level FlightAware
01:43PM 48.4530 4.7370 87° East 439 505 37,000  Level FlightAware
01:44PM 48.4580 4.8810 87° East 439 505 37,000 -420 Level FlightAware
01:45PM 48.4440 4.9960 100° East 430 495 36,400 -900 Descending FlightAware
01:45PM 48.4090 5.1060 116° Southeast 425 489 35,800 -960 Descending FlightAware
01:46PM 48.3700 5.2310 115° Southeast 428 493 35,100 -600 Descending FlightAware
01:47PM 48.3360 5.3420 115° Southeast 434 499 35,000 -720 Descending FlightAware
01:47PM 48.3020 5.4490 116° Southeast 430 495 34,200 -1,320 Descending FlightAware
01:48PM 48.2690 5.5560 115° Southeast 435 501 33,300 -1,380 Descending FlightAware
01:49PM 48.2330 5.6680 116° Southeast 434 499 32,400 -1,380 Descending FlightAware
01:49PM 48.2000 5.7750 115° Southeast 437 503 31,500 -1,080 Descending FlightAware
01:50PM 48.1610 5.8950 116° Southeast 447 514 30,900 -840 Descending FlightAware
01:51PM 48.1250 6.0070 116° Southeast 437 503 30,300 -1,020 Descending FlightAware
01:52PM 48.0740 6.1660 116° Southeast 433 498 29,300 -1,020 Descending FlightAware
01:52PM 48.0390 6.2750 116° Southeast 428 493 28,700 -1,080 Descending FlightAware
01:53PM 48.0010 6.4040 114° Southeast 428 493 27,800 -1,500 Descending FlightAware
01:54PM 47.9890 6.5040 100° East 420 483 26,600 -2,040 Descending FlightAware
01:54PM 47.9730 6.6290 101° East 414 476 25,100 -2,100 Descending FlightAware
01:55PM 47.9580 6.7530 100° East 403 464 23,500 -2,100 Descending FlightAware
01:56PM 47.9430 6.8650 101° East 394 453 22,200 -1,980 Descending FlightAware
01:57PM 47.9280 6.9780 101° East 386 444 20,700 -2,100 Descending FlightAware
01:57PM 47.9150 7.0860 100° East 378 435 19,300 -2,040 Descending FlightAware
01:58PM 47.9040 7.1720 101° East 369 425 18,200 -1,020 Descending FlightAware
01:59PM 47.8910 7.2820 100° East 322 371 18,000 -180 Descending FlightAware
01:59PM 47.8800 7.3770 100° East 312 359 18,000  Level FlightAware
02:00PM 47.8590 7.4660 109° East 308 354 18,000  Level FlightAware
02:01PM 47.8150 7.5360 133° Southeast 311 358 18,000  Level FlightAware
02:02PM 47.7720 7.6060 132° Southeast 314 361 18,000  Level FlightAware
02:02PM 47.7320 7.6730 132° Southeast 315 362 18,000 -300 Level FlightAware
02:03PM 47.6930 7.7360 133° Southeast 302 348 17,600 -720 Descending FlightAware
02:04PM 47.6510 7.8050 132° Southeast 308 354 17,000 -480 Descending FlightAware
02:04PM 47.6140 7.8640 133° Southeast 307 353 17,000 -540 Level FlightAware
02:05PM 47.5720 7.9320 132° Southeast 290 334 16,300 -840 Descending FlightAware
02:06PM 47.5410 7.9840 131° Southeast 273 314 15,900 -1,020 Descending FlightAware
02:06PM 47.5260 8.0140 127° Southeast 277 319 15,400 -1,380 Descending FlightAware
02:06PM 47.5220 8.0380 104° East 276 318 15,100 -1,380 Descending FlightAware
02:07PM 47.5390 8.0880 63° Northeast 276 318 14,500 -1,440 Descending FlightAware
02:07PM 47.5540 8.0990 26° Northeast 279 321 14,200 -720 Descending FlightAware
02:07PM 47.5920 8.0870 348° North 285 328 14,000 -720 Descending FlightAware
02:08PM 47.6250 8.0310 311° West 279 321 13,400 -840 Descending FlightAware
02:08PM 47.6280 8.0110 283° West 272 313 13,300 -900 Descending FlightAware
02:09PM 47.6140 7.9640 246° West 263 303 12,800 -1,080 Descending FlightAware
02:09PM 47.5970 7.9520 205° Southwest 262 302 12,500 -1,200 Descending FlightAware
02:09PM 47.5790 7.9530 178° South 257 296 12,200 -1,200 Descending FlightAware
02:10PM 47.5340 7.9630 171° South 249 287 11,400 -1,200 Descending FlightAware
02:10PM 47.5160 7.9840 142° Southeast 244 281 11,000 -1,200 Descending FlightAware
02:10PM 47.5130 7.9950 112° Southeast 243 280 10,800 -1,020 Descending FlightAware
02:11PM 47.5140 8.0240 87° East 242 278 10,400 -1,440 Descending FlightAware
02:11PM 47.5390 8.0550 40° Northeast 239 275 9,800 -1,020 Descending FlightAware
02:12PM 47.5700 8.0700 18° North 237 273 9,400 -1,080 Descending FlightAware
02:12PM 47.6030 8.1070 37° Northeast 225 259 8,600 -1,500 Descending FlightAware
02:13PM 47.6140 8.1260 49° Northeast 226 260 8,200 -1,080 Descending FlightAware
02:13PM 47.6330 8.1600 50° Northeast 222 255 7,700 -900 Descending FlightAware
02:14PM 47.6530 8.1930 48° Northeast 203 234 7,300 -900 Descending FlightAware
02:14PM 47.6670 8.2260 58° Northeast 185 213 6,800 -1,200 Descending FlightAware
02:15PM 47.6580 8.2660 108° East 187 215 6,100 -1,140 Descending FlightAware
02:15PM 47.6410 8.3130 118° Southeast 179 206 5,400 -960 Descending FlightAware
02:16PM 47.6240 8.3420 131° Southeast 179 206 4,900 -1,020 Descending FlightAware
02:16PM 47.6100 8.3600 139° Southeast 176 203 4,500 -900 Descending FlightAware
02:17PM 47.5920 8.3860 136° Southeast 164 189 4,000 -900 Descending FlightAware
02:17PM 47.5760 8.4080 137° Southeast 159 183 3,600 -840 Descending FlightAware
02:18PM 47.5630 8.4250 139° Southeast 157 181 3,300 -720 Descending FlightAware
02:18PM 47.5500 8.4430 137° Southeast 162 186 3,000 -960 Descending FlightAware
02:18PM 47.5410 8.4550 138° Southeast 157 181 2,700 -480 Descending FlightAware
02:19PM 47.5290 8.4730 135° Southeast 157 181 2,700  Level FlightAware
02:21PM 47.4647 8.5492 141° Southeast  Level Estimated